HTMW

Mwanza Airport

Airport
ICAO code
HTMW
IATA Code
MWZ
Summary
ICAO Region
AFI
ICAO Territory
Location

Mwanza, Mwanza Region

Serving
Mwanza
Elevation
3763 ft
Coordinates
2° 26' 40" S , 32° 55' 60" E
KCC
Aw
Metar
Observation
HTMW 140600Z 11011KT 9999 FEW023 FEW024CB SCT100 24/20 Q1017 NOSIG
Station
Mwanza
Date/Time
2022-08-14 06:00:00
Wind direction
110°
Wind speed
11 kts
Lowest cloud amount
few clouds
Temperature
24°C
Dew point
20°C
Humidity
78%
QNH
1017 hPa
Weather condition
n/a

Mwanza International Airport is a major regional airport in northern Tanzania serving the city of Mwanza. It is located near the shores of Lake Victoria.

Climatology

Tropical Savanna climate (Köppen climate classification Aw)

Runways

Designator Length Width Surface Rops
12/30 3113 45 ASP No/No

Airport map

Aerial View

SKYbrary Partners:

Safety knowledge contributed by: